Latest Weather Observations for Dartmoor

IDV60801

Issued at 8:32 pm EDT Sunday 26 February 2017 (issued every 30 minutes, with the page automatically refreshed every 10 minutes)

About weather observations | Map of weather stations | Latest weather observations for VIC | Other Formats
Station Details ID: 090194 Name: DARTMOOR Lat: -37.92 Lon: 141.26 Height: 51.0 m
Data from the previous 72 hours. | See also: Recent months at Dartmoor
Date/Time
EDT
Temp
°C
App
Temp
°C
Dew
Point
°C
Rel
Hum
%
Delta-T
°C
Wind Press
QNH
hPa
Press
MSL
hPa
Rain since
9am
mm
Dir  Spd
km/h
Gust
km/h
Spd
kts
Gust
kts
26/08:30pm 19.9 18.3 13.8 68 3.5 SE 15 19 8 10 1019.3 1019.2 0.0
26/08:00pm 21.3 19.7 14.0 63 4.2 SE 15 22 8 12 1018.9 1018.8 0.0
26/07:30pm 23.0 20.7 14.0 57 5.3 ESE 19 22 10 12 1018.7 1018.6 0.0
26/07:00pm 24.9 23.6 14.7 53 6.1 SSE 15 24 8 13 1018.4 1018.3 0.0
26/06:30pm 25.1 23.3 15.4 55 5.9 SSW 19 26 10 14 1018.0 1017.9 0.0
26/06:00pm 25.6 23.6 15.0 52 6.4 SSW 19 24 10 13 1017.8 1017.7 0.0
26/05:30pm 26.6 24.3 14.7 48 7.2 SW 20 24 11 13 1017.5 1017.4 0.0
26/05:00pm 28.3 27.7 10.5 33 10.1 ENE 4 13 2 7 1017.6 1017.5 0.0
26/04:30pm 28.5 27.6 10.7 33 10.1 NNE 6 17 3 9 1017.8 1017.7 0.0
26/04:00pm 27.9 27.0 10.6 34 9.8 E 6 11 3 6 1018.1 1018.0 0.0
26/03:30pm 27.1 26.3 11.2 37 9.1 N 6 13 3 7 1018.5 1018.4 0.0
26/03:00pm 26.8 26.1 11.3 38 8.8 SSE 6 15 3 8 1018.7 1018.6 0.0
26/02:30pm 25.9 25.3 11.6 40 8.2 SE 6 11 3 6 1019.2 1019.1 0.0
26/02:00pm 25.5 24.9 13.4 47 7.1 NE 9 15 5 8 1019.6 1019.5 0.0
26/01:30pm 24.3 23.8 12.6 48 6.7 ENE 7 15 4 8 1019.8 1019.7 0.0
26/01:00pm 23.5 22.8 13.1 52 6.0 ESE 9 20 5 11 1020.2 1020.1 0.0
26/12:30pm 22.9 21.8 13.1 54 5.7 ENE 11 28 6 15 1020.5 1020.4 0.0
26/12:00pm 21.6 19.6 12.7 57 5.1 SE 15 20 8 11 1020.8 1020.7 0.0
26/11:30am 20.9 19.6 12.6 59 4.7 ESE 11 24 6 13 1021.2 1021.1 0.0
26/11:00am 20.4 17.6 12.6 61 4.4 ESE 19 26 10 14 1021.4 1021.3 0.0
26/10:30am 19.5 16.3 12.0 62 4.2 ESE 20 28 11 15 1021.5 1021.4 0.0
26/10:00am 18.9 15.9 12.6 67 3.5 E 20 30 11 16 1021.6 1021.5 0.0
26/09:30am 16.5 16.4 15.0 91 0.9 ESE 9 13 5 7 1021.7 1021.6 0.0
26/09:00am 14.2 15.0 13.6 96 0.3 SSE 2 6 1 3 1021.6 1021.5 0.0
26/08:30am 12.6 13.2 12.0 96 0.3 CALM 0 4 0 2 1021.7 1021.6 0.0
26/08:00am 11.6 11.9 11.0 96 0.3 CALM 0 0 0 0 1021.7 1021.6 0.0
26/07:30am 10.3 10.3 9.7 96 0.3 CALM 0 0 0 0 1021.6 1021.5 0.0
26/07:00am 9.8 9.6 9.0 95 0.4 CALM 0 0 0 0 1021.4 1021.3 0.0
26/06:30am 10.0 9.8 9.2 95 0.4 CALM 0 0 0 0 1021.3 1021.2 0.0
26/06:00am 10.0 9.8 9.2 95 0.4 CALM 0 0 0 0 1021.2 1021.1 0.0
26/05:30am 10.4 10.3 9.6 95 0.4 CALM 0 0 0 0 1021.2 1021.1 0.0
26/05:00am 10.4 9.2 9.6 95 0.4 SW 6 7 3 4 1021.2 1021.1 0.0
26/04:30am 10.3 8.9 9.5 95 0.4 SSW 7 9 4 5 1021.3 1021.2 0.0
26/04:00am 10.6 9.2 9.7 94 0.5 S 7 9 4 5 1021.5 1021.4 0.0
26/03:30am 10.6 9.2 9.5 93 0.6 S 7 9 4 5 1021.8 1021.7 0.0
26/03:00am 11.1 9.4 9.9 92 0.6 S 9 9 5 5 1021.9 1021.8 0.0
26/02:30am 11.8 10.2 10.2 90 0.8 S 9 11 5 6 1022.1 1022.0 0.0
26/02:00am 12.7 10.5 10.8 88 1.0 S 13 17 7 9 1022.6 1022.5 0.0
26/01:30am 13.1 11.7 10.8 86 1.2 S 9 13 5 7 1023.0 1022.9 0.0
26/01:00am 13.4 11.9 10.6 83 1.5 S 9 15 5 8 1023.2 1023.1 0.0
26/12:30am 13.8 11.9 10.4 80 1.8 SSE 11 15 6 8 1023.3 1023.2 0.0
26/12:00am 14.3 11.9 10.1 76 2.2 SSE 13 19 7 10 1023.8 1023.7 0.0
 
Date/Time
EDT
Temp
°C
App
Temp
°C
Dew
Point
°C
Rel
Hum
%
Delta-T
°C
Wind Press
QNH
hPa
Press
MSL
hPa
Rain since
9am
mm
Dir  Spd
km/h
Gust
km/h
Spd
kts
Gust
kts
25/11:30pm 14.2 11.6 9.4 73 2.5 SSE 13 19 7 10 1024.0 1023.9 0.0
25/11:00pm 14.2 11.5 9.0 71 2.6 SSE 13 19 7 10 1024.5 1024.4 0.0
25/10:30pm 14.3 11.5 8.5 68 2.9 S 13 19 7 10 1024.6 1024.5 0.0
25/10:00pm 14.4 11.1 7.9 65 3.2 SSE 15 24 8 13 1024.6 1024.5 0.0
25/09:30pm 14.3 10.9 7.8 65 3.2 SSE 15 19 8 10 1024.7 1024.6 0.0
25/09:00pm 14.3 10.8 7.4 63 3.4 SSE 15 20 8 11 1024.5 1024.4 0.0
25/08:30pm 14.1 11.3 6.9 62 3.5 SSE 11 17 6 9 1024.7 1024.6 0.0
25/08:00pm 14.3 9.7 6.6 60 3.7 SE 20 26 11 14 1024.6 1024.5 0.0
25/07:30pm 15.2 10.6 6.7 57 4.2 SSE 20 28 11 15 1024.5 1024.4 0.0
25/07:00pm 15.7 10.8 6.7 55 4.4 SE 22 33 12 18 1024.3 1024.2 0.0
25/06:30pm 16.2 9.9 7.2 55 4.5 SE 30 44 16 24 1024.2 1024.1 0.0
25/06:00pm 17.7 12.4 6.9 49 5.4 SSE 24 32 13 17 1023.8 1023.7 0.0
25/05:30pm 18.4 13.7 7.8 50 5.4 SSE 22 35 12 19 1024.0 1023.9 0.0
25/05:00pm 18.6 13.0 7.1 47 5.8 SE 26 35 14 19 1024.2 1024.1 0.0
25/04:30pm 18.2 12.9 7.0 48 5.6 SE 24 37 13 20 1024.6 1024.5 0.0
25/04:00pm 19.8 14.4 8.2 47 6.0 SSE 26 37 14 20 1024.6 1024.5 0.0
25/03:30pm 18.4 13.2 7.2 48 5.7 SSE 24 35 13 19 1024.8 1024.7 0.0
25/03:00pm 19.5 13.8 6.9 44 6.3 SSE 26 39 14 21 1024.9 1024.8 0.0
25/02:30pm 20.1 15.2 7.1 43 6.6 SSE 22 39 12 21 1025.1 1025.0 0.0
25/02:00pm 20.1 15.6 7.1 43 6.6 S 20 32 11 17 1025.5 1025.4 0.0
25/01:30pm 19.6 15.2 7.4 45 6.2 SE 20 33 11 18 1025.6 1025.5 0.0
25/01:00pm 18.1 13.3 7.2 49 5.5 SSE 22 32 12 17 1025.8 1025.7 0.0
25/12:30pm 18.3 13.5 7.4 49 5.5 SE 22 32 12 17 1026.0 1025.9 0.0
25/12:00pm 17.3 11.4 7.4 52 4.9 SE 28 33 15 18 1026.5 1026.4 0.0
25/11:30am 18.8 13.8 7.9 49 5.6 SE 24 35 13 19 1026.6 1026.5 0.0
25/11:00am 17.3 12.8 7.1 51 5.1 SSE 20 28 11 15 1026.7 1026.6 0.0
25/10:30am 17.3 12.2 7.6 53 4.9 SSE 24 35 13 19 1026.7 1026.6 0.0
25/10:00am 16.1 11.0 7.8 58 4.1 SSE 24 33 13 18 1026.4 1026.3 0.0
25/09:30am 14.9 10.7 8.4 65 3.3 SE 20 30 11 16 1026.7 1026.6 0.0
25/09:00am 14.5 10.5 9.1 70 2.7 SSE 20 30 11 16 1027.0 1026.9 0.0
25/08:30am 13.9 11.0 9.7 76 2.2 SSE 15 22 8 12 1026.6 1026.5 0.0
25/08:00am 13.3 10.3 9.2 76 2.1 SSE 15 20 8 11 1026.4 1026.3 0.0
25/07:30am 13.5 10.5 9.4 76 2.1 SSE 15 20 8 11 1026.2 1026.1 0.0
25/07:00am 12.9 9.9 9.2 78 1.9 SSE 15 20 8 11 1025.9 1025.8 0.0
25/06:30am 13.2 11.7 10.4 83 1.5 SSE 9 13 5 7 1025.7 1025.6 0.0
25/06:00am 13.1 11.6 10.6 85 1.3 S 9 13 5 7 1025.8 1025.7 0.0
25/05:30am 13.3 12.0 11.2 87 1.1 S 9 11 5 6 1025.7 1025.6 0.0
25/05:00am 13.3 11.7 11.5 89 1.0 S 11 15 6 8 1025.6 1025.5 0.0
25/04:30am 13.3 11.7 11.5 89 1.0 SSW 11 15 6 8 1025.6 1025.5 0.0
25/04:00am 13.6 11.5 11.0 84 1.4 S 13 19 7 10 1025.5 1025.4 0.0
25/03:30am 14.1 12.3 10.7 80 1.8 S 11 15 6 8 1025.7 1025.6 0.0
25/03:00am 13.5 12.1 10.9 84 1.4 SSW 9 11 5 6 1026.0 1025.9 0.0
25/02:30am 13.6 12.5 10.8 83 1.5 S 7 11 4 6 1026.2 1026.1 0.0
25/02:00am 13.5 12.4 10.7 83 1.5 SSE 7 11 4 6 1026.4 1026.3 0.0
25/01:30am 13.7 12.3 11.0 84 1.4 S 9 13 5 7 1026.6 1026.5 0.0
25/01:00am 13.0 11.5 10.5 85 1.3 S 9 13 5 7 1026.8 1026.7 0.0
25/12:30am 12.9 11.5 10.8 87 1.1 SSW 9 11 5 6 1026.9 1026.8 0.0
25/12:00am 11.7 10.4 9.8 88 1.0 S 7 11 4 6 1027.0 1026.9 0.0
 
Date/Time
EDT
Temp
°C
App
Temp
°C
Dew
Point
°C
Rel
Hum
%
Delta-T
°C
Wind Press
QNH
hPa
Press
MSL
hPa
Rain since
9am
mm
Dir  Spd
km/h
Gust
km/h
Spd
kts
Gust
kts
24/11:30pm 12.2 10.9 9.8 85 1.2 SSW 7 7 4 4 1027.0 1026.9 0.0
24/11:00pm 11.8 10.6 9.4 85 1.2 S 6 7 3 4 1027.1 1027.0 0.0
24/10:30pm 12.2 10.7 9.2 82 1.5 S 7 9 4 5 1027.1 1027.0 0.0
24/10:00pm 13.1 11.7 9.4 78 1.9 S 7 9 4 5 1027.0 1026.9 0.0
24/09:30pm 13.5 11.4 9.6 77 2.0 S 11 13 6 7 1026.9 1026.8 0.0
24/09:00pm 13.9 12.0 8.9 72 2.5 S 9 13 5 7 1026.8 1026.7 0.0
24/08:30pm 15.4 12.7 9.1 66 3.2 S 13 17 7 9 1026.6 1026.5 0.0
24/08:00pm 16.8 13.2 9.7 63 3.7 SE 19 26 10 14 1026.4 1026.3 0.0
24/07:30pm 17.6 13.9 9.5 59 4.3 SSE 19 28 10 15 1026.3 1026.2 0.0
24/07:00pm 17.5 14.5 9.2 58 4.3 S 15 24 8 13 1026.1 1026.0 0.0
24/06:30pm 17.6 14.0 10.0 61 4.0 S 19 26 10 14 1026.0 1025.9 0.0
24/06:00pm 18.1 15.8 10.5 61 4.1 S 13 22 7 12 1026.1 1026.0 0.0
24/05:30pm 18.0 14.8 10.1 60 4.2 SSW 17 24 9 13 1025.9 1025.8 0.0
24/05:00pm 18.1 14.8 9.7 58 4.4 SSW 17 24 9 13 1025.9 1025.8 0.0
24/04:30pm 19.0 15.2 8.9 52 5.3 SSW 19 28 10 15 1025.8 1025.7 0.0
24/04:00pm 19.6 15.0 8.0 47 6.0 SSW 22 32 12 17 1026.0 1025.9 0.0
24/03:30pm 20.0 16.0 9.0 49 5.8 SSW 20 30 11 16 1026.1 1026.0 0.0
24/03:00pm 18.9 15.9 9.1 53 5.1 S 15 26 8 14 1026.2 1026.1 0.0
24/02:30pm 18.4 15.6 10.0 58 4.5 SSW 15 20 8 11 1026.5 1026.4 0.0
24/02:00pm 17.8 14.5 9.7 59 4.3 SSW 17 22 9 12 1026.6 1026.5 0.0
24/01:30pm 17.9 14.2 9.3 57 4.5 SSW 19 26 10 14 1026.7 1026.6 0.0
24/01:00pm 18.5 15.5 9.3 55 4.8 S 15 20 8 11 1026.9 1026.8 0.0
24/12:30pm 17.9 14.4 8.7 55 4.8 SSW 17 24 9 13 1027.0 1026.9 0.0
24/12:00pm 17.4 14.3 8.8 57 4.4 SSW 15 24 8 13 1027.1 1027.0 0.0
24/11:30am 17.8 14.2 8.4 54 4.8 SSW 17 24 9 13 1027.1 1027.0 0.0
24/11:00am 16.9 13.5 9.1 60 4.0 SSW 17 26 9 14 1027.1 1027.0 0.0
24/10:30am 16.5 13.9 9.4 63 3.7 SSW 13 22 7 12 1026.8 1026.7 0.0
24/10:00am 16.2 14.8 9.6 65 3.4 S 7 9 4 5 1026.6 1026.5 0.0
24/09:30am 15.6 15.2 9.7 68 3.1 SW 2 6 1 3 1026.4 1026.3 0.0
24/09:00am 14.7 14.8 10.3 75 2.3 CALM 0 2 0 1 1026.1 1026.0 0.0
24/08:30am 14.1 14.2 10.3 78 2.0 CALM 0 0 0 0 1025.8 1025.7 0.0
24/08:00am 13.8 13.7 9.6 76 2.1 CALM 0 0 0 0 1025.5 1025.4 0.0
24/07:30am 13.5 12.8 8.4 71 2.6 SSW 2 2 1 1 1025.1 1025.0 0.0
24/07:00am 13.6 12.5 8.4 71 2.6 WSW 4 7 2 4 1024.9 1024.8 0.0
24/06:30am 13.4 12.3 8.5 72 2.5 SW 4 6 2 3 1024.6 1024.5 0.0
24/06:00am 13.3 12.6 8.4 72 2.4 S 2 4 1 2 1024.3 1024.2 0.0
24/05:30am 13.3 12.2 8.4 72 2.4 SSW 4 6 2 3 1024.1 1024.0 0.0
24/05:00am 12.9 11.7 8.2 73 2.3 SSW 4 6 2 3 1024.0 1023.9 0.0
24/04:30am 12.6 11.0 8.1 74 2.2 SW 6 7 3 4 1024.0 1023.9 0.0
24/04:00am 12.3 10.6 7.6 73 2.3 WSW 6 6 3 3 1024.0 1023.9 0.0
24/03:30am 12.2 11.3 7.7 74 2.2 SW 2 4 1 2 1024.0 1023.9 0.0
24/03:00am 13.3 11.6 7.7 69 2.7 SW 6 6 3 3 1023.8 1023.7 0.0
24/02:30am 13.9 12.3 7.9 67 3.0 WSW 6 9 3 5 1024.1 1024.0 0.0
24/02:00am 13.9 12.9 8.7 71 2.6 SW 4 6 2 3 1024.2 1024.1 0.0
24/01:30am 14.4 13.4 9.0 70 2.8 WSW 4 6 2 3 1024.2 1024.1 0.0
24/01:00am 14.6 13.4 9.6 72 2.6 SW 6 7 3 4 1024.6 1024.5 0.0
24/12:30am 14.8 13.7 10.0 73 2.5 SW 6 9 3 5 1024.7 1024.6 0.0
24/12:00am 14.8 14.1 10.0 73 2.5 WSW 4 6 2 3 1024.5 1024.4 0.0
 
Date/Time
EDT
Temp
°C
App
Temp
°C
Dew
Point
°C
Rel
Hum
%
Delta-T
°C
Wind Press
QNH
hPa
Press
MSL
hPa
Rain since
9am
mm
Dir  Spd
km/h
Gust
km/h
Spd
kts
Gust
kts
23/11:30pm 15.0 14.0 10.2 73 2.5 SW 6 11 3 6 1024.3 1024.2 0.0
23/11:00pm 15.0 14.1 10.8 76 2.2 SW 6 9 3 5 1024.3 1024.2 0.0
23/10:30pm 15.2 14.8 11.0 76 2.2 SW 4 9 2 5 1024.2 1024.1 0.0
23/10:00pm 15.4 14.4 11.0 75 2.3 SSW 7 11 4 6 1024.0 1023.9 0.0
23/09:30pm 15.5 14.7 10.9 74 2.5 WSW 6 9 3 5 1023.6 1023.5 0.0
23/09:00pm 15.4 14.6 11.0 75 2.3 SW 6 9 3 5 1023.2 1023.1 0.0

Other Formats:

Comma delimited format used in spreadsheet applications
http://www.bom.gov.au/fwo/IDV60801/IDV60801.95822.axf

JavaScript Object Notation format (JSON) in row-major order
http://www.bom.gov.au/fwo/IDV60801/IDV60801.95822.json